createdAt,value
2022-11-13T00:01:16.726Z,41.63
2022-11-13T00:06:12.029Z,38.38
2022-11-13T00:08:39.248Z,40.40
2022-11-13T00:11:20.833Z,37.00
2022-11-13T00:13:48.742Z,37.45
2022-11-13T00:16:18.863Z,39.17
2022-11-13T00:18:46.416Z,37.95
2022-11-13T00:21:18.714Z,36.80
2022-11-13T00:23:45.927Z,36.67
2022-11-13T00:26:20.858Z,37.20
2022-11-13T00:28:47.938Z,35.63
2022-11-13T00:31:15.717Z,35.83
2022-11-13T00:34:09.116Z,34.78
2022-11-13T00:36:29.707Z,34.80
2022-11-13T00:38:56.942Z,35.15
2022-11-13T00:41:24.513Z,33.05
2022-11-13T00:43:51.870Z,33.53
2022-11-13T00:46:18.884Z,31.10
2022-11-13T00:48:45.854Z,31.55
2022-11-13T00:51:12.745Z,32.58
2022-11-13T00:53:39.842Z,31.77
2022-11-13T00:56:06.837Z,47.50
2022-11-13T00:58:33.748Z,72.68
2022-11-13T01:01:12.001Z,65.80
2022-11-13T01:03:39.073Z,61.13
2022-11-13T01:06:18.355Z,57.88
2022-11-13T01:08:45.236Z,56.85
2022-11-13T01:11:15.839Z,50.92
2022-11-13T01:13:43.817Z,46.53
2022-11-13T01:16:12.099Z,45.13
2022-11-13T01:18:39.552Z,42.20
2022-11-13T01:21:15.029Z,42.42
2022-11-13T01:23:42.777Z,40.28
2022-11-13T01:26:13.319Z,40.33
2022-11-13T01:28:41.519Z,38.53
2022-11-13T01:31:10.181Z,37.30
2022-11-13T01:33:37.108Z,38.00
2022-11-13T01:36:13.008Z,36.38
2022-11-13T01:38:39.933Z,36.58
2022-11-13T01:41:07.896Z,35.28
2022-11-13T01:43:36.904Z,34.13
2022-11-13T01:46:13.551Z,34.92
2022-11-13T01:48:43.863Z,33.88
2022-11-13T01:51:14.617Z,31.98
2022-11-13T01:53:44.840Z,32.92
2022-11-13T01:56:13.015Z,32.15
2022-11-13T01:58:41.311Z,31.50
2022-11-13T02:01:08.448Z,31.35
2022-11-13T02:03:35.265Z,30.13
2022-11-13T02:06:02.479Z,31.23
2022-11-13T02:08:29.989Z,30.13
2022-11-13T02:13:25.040Z,28.60
2022-11-13T02:15:52.133Z,28.83
2022-11-13T02:18:20.742Z,28.67
2022-11-13T02:21:06.414Z,28.35
2022-11-13T02:23:52.345Z,28.63
2022-11-13T02:26:20.574Z,27.27
2022-11-13T02:28:47.485Z,25.90
2022-11-13T02:31:14.913Z,27.00
2022-11-13T02:33:41.833Z,26.23
2022-11-13T02:36:09.914Z,26.05
2022-11-13T02:38:37.750Z,26.15
2022-11-13T02:41:04.700Z,25.77
2022-11-13T02:43:31.514Z,23.90
2022-11-13T02:45:58.327Z,24.38
2022-11-13T02:48:25.342Z,24.92
2022-11-13T02:50:52.334Z,25.10
2022-11-13T02:53:19.160Z,23.98
2022-11-13T02:55:45.969Z,23.95
2022-11-13T02:58:12.763Z,23.13
2022-11-13T03:00:39.615Z,23.52
2022-11-13T03:03:06.452Z,23.45
2022-11-13T03:05:33.287Z,22.05
2022-11-13T03:08:00.155Z,22.67
2022-11-13T03:10:27.100Z,21.80
2022-11-13T03:12:54.166Z,22.13
2022-11-13T03:15:21.017Z,22.70
2022-11-13T03:17:47.827Z,21.75
2022-11-13T03:20:14.628Z,22.45
2022-11-13T03:22:41.459Z,20.63
2022-11-13T03:25:10.747Z,20.35
2022-11-13T03:30:05.703Z,20.55
2022-11-13T03:32:32.512Z,19.70
2022-11-13T03:34:59.321Z,21.15
2022-11-13T03:37:26.150Z,19.20
2022-11-13T03:39:53.007Z,20.35
2022-11-13T03:42:20.081Z,20.00
2022-11-13T03:44:46.948Z,19.33
2022-11-13T03:47:13.758Z,19.30
2022-11-13T03:49:40.597Z,18.27
2022-11-13T03:52:07.406Z,18.70
2022-11-13T03:54:34.311Z,18.75
2022-11-13T03:57:01.175Z,18.70
2022-11-13T03:59:27.982Z,18.98
2022-11-13T04:01:54.919Z,18.67
2022-11-13T04:04:21.923Z,18.38
2022-11-13T04:06:48.754Z,18.15
2022-11-13T04:09:15.678Z,18.02
2022-11-13T04:11:42.514Z,17.25
2022-11-13T04:14:09.332Z,17.58
2022-11-13T04:16:36.287Z,16.77
2022-11-13T04:19:03.309Z,17.02
2022-11-13T04:21:30.271Z,17.38
2022-11-13T04:23:57.146Z,16.83
2022-11-13T04:26:24.068Z,15.73
2022-11-13T04:28:50.895Z,17.02
2022-11-13T04:31:17.729Z,17.20
2022-11-13T04:33:44.587Z,16.33
2022-11-13T04:36:11.540Z,16.20
2022-11-13T04:38:38.384Z,15.93
2022-11-13T04:41:23.996Z,15.15
2022-11-13T04:43:50.807Z,15.15
2022-11-13T04:46:17.654Z,15.30
2022-11-13T04:48:44.457Z,14.60
2022-11-13T04:51:11.568Z,14.57
2022-11-13T04:53:38.442Z,15.25
2022-11-13T04:56:05.359Z,14.90
2022-11-13T04:58:32.249Z,14.52
2022-11-13T05:00:59.083Z,14.38
2022-11-13T05:03:25.919Z,15.10
2022-11-13T05:05:52.798Z,14.25
2022-11-13T05:08:19.654Z,14.35
2022-11-13T05:10:46.545Z,14.05
2022-11-13T05:13:13.370Z,14.02
2022-11-13T05:15:40.149Z,14.38
2022-11-13T05:18:06.974Z,13.70
2022-11-13T05:20:33.791Z,13.43
2022-11-13T05:23:00.584Z,13.88
2022-11-13T05:25:27.443Z,13.23
2022-11-13T05:27:54.316Z,13.27
2022-11-13T05:30:21.200Z,12.98
2022-11-13T05:32:48.034Z,12.88
2022-11-13T05:35:14.960Z,13.15
2022-11-13T05:37:41.855Z,11.95
2022-11-13T05:40:09.315Z,13.02
2022-11-13T05:42:36.121Z,12.50
2022-11-13T05:45:03.044Z,12.82
2022-11-13T05:47:29.931Z,12.45
2022-11-13T05:49:56.748Z,12.73
2022-11-13T05:52:23.577Z,12.80
2022-11-13T05:54:50.389Z,12.30
2022-11-13T05:57:17.227Z,12.85
2022-11-13T05:59:44.018Z,12.43
2022-11-13T06:02:10.897Z,12.50
2022-11-13T06:04:37.738Z,11.95
2022-11-13T06:07:04.604Z,12.07
2022-11-13T06:09:31.429Z,11.10
2022-11-13T06:11:58.248Z,12.07
2022-11-13T06:14:25.143Z,11.02
2022-11-13T06:16:52.030Z,11.05
2022-11-13T06:19:18.886Z,10.27
2022-11-13T06:21:45.787Z,11.07
2022-11-13T06:24:13.317Z,11.30
2022-11-13T06:26:40.289Z,10.77
2022-11-13T06:29:08.394Z,11.20
2022-11-13T06:31:36.582Z,10.55
2022-11-13T06:34:04.459Z,10.52
2022-11-13T06:36:36.303Z,10.55
2022-11-13T06:39:06.815Z,10.30
2022-11-13T06:41:33.681Z,11.30
2022-11-13T06:44:02.960Z,10.13
2022-11-13T06:46:30.676Z,10.27
2022-11-13T06:48:58.153Z,10.35
2022-11-13T06:51:28.988Z,10.30
2022-11-13T06:53:56.097Z,9.85
2022-11-13T06:56:23.936Z,9.52
2022-11-13T06:58:50.805Z,9.70
2022-11-13T07:01:22.662Z,9.68
2022-11-13T07:03:49.623Z,9.77
2022-11-13T07:06:18.967Z,10.05
2022-11-13T07:08:46.048Z,9.90
2022-11-13T07:11:15.404Z,9.50
2022-11-13T07:13:43.007Z,9.82
2022-11-13T07:16:16.889Z,8.82
2022-11-13T07:18:49.306Z,8.88
2022-11-13T07:21:16.151Z,9.13
2022-11-13T07:23:43.690Z,8.55
2022-11-13T07:26:13.942Z,9.02
2022-11-13T07:28:40.821Z,8.90
2022-11-13T07:31:08.093Z,8.77
2022-11-13T07:33:34.942Z,8.88
2022-11-13T07:36:01.778Z,8.90
2022-11-13T07:38:28.934Z,8.57
2022-11-13T07:40:58.860Z,8.77
2022-11-13T07:45:54.852Z,8.02
2022-11-13T07:48:24.920Z,7.95
2022-11-13T07:50:51.886Z,8.27
2022-11-13T07:53:19.753Z,7.72
2022-11-13T07:55:47.106Z,8.18
2022-11-13T07:58:14.204Z,7.95
2022-11-13T08:00:41.040Z,7.38
2022-11-13T08:03:14.671Z,7.90
2022-11-13T08:05:42.459Z,8.02
2022-11-13T08:08:12.616Z,7.68
2022-11-13T08:10:39.531Z,6.90
2022-11-13T08:13:08.674Z,7.25
2022-11-13T08:15:35.685Z,7.85
2022-11-13T08:18:03.971Z,7.22
2022-11-13T08:20:31.526Z,7.78
2022-11-13T08:23:00.125Z,7.70
2022-11-13T08:25:27.990Z,7.03
2022-11-13T08:27:55.186Z,7.63
2022-11-13T08:30:22.227Z,7.90
2022-11-13T08:32:49.426Z,7.32
2022-11-13T08:35:19.556Z,7.72
2022-11-13T08:37:47.168Z,17.75
2022-11-13T08:40:14.140Z,22.67
2022-11-13T08:42:40.988Z,22.92
2022-11-13T08:45:08.692Z,20.75
2022-11-13T08:47:35.931Z,18.20
2022-11-13T08:50:03.233Z,15.95
2022-11-13T08:52:30.064Z,14.15
2022-11-13T08:54:56.940Z,13.80
2022-11-13T08:57:23.827Z,12.80
2022-11-13T08:59:50.700Z,11.85
2022-11-13T09:02:17.583Z,11.77
2022-11-13T09:04:44.439Z,11.50
2022-11-13T09:07:11.619Z,11.27
2022-11-13T09:09:38.621Z,11.90
2022-11-13T09:12:05.978Z,11.38
2022-11-13T09:14:32.909Z,10.55
2022-11-13T09:16:59.773Z,10.65
2022-11-13T09:19:27.082Z,10.85
2022-11-13T09:21:54.339Z,10.30
2022-11-13T09:24:21.210Z,9.85
2022-11-13T09:26:48.045Z,10.00
2022-11-13T09:29:14.921Z,9.27
2022-11-13T09:31:41.914Z,10.27
2022-11-13T09:34:09.215Z,41.97
2022-11-13T09:36:36.784Z,40.45
2022-11-13T09:39:04.717Z,35.08
2022-11-13T09:41:59.779Z,28.58
2022-11-13T09:47:37.486Z,21.38
2022-11-13T09:50:12.499Z,19.42
2022-11-13T09:52:43.296Z,18.45
2022-11-13T09:55:16.413Z,16.98
2022-11-13T09:58:12.139Z,16.20
2022-11-13T10:00:39.697Z,15.70
2022-11-13T10:03:59.274Z,15.15
2022-11-13T10:06:30.641Z,14.45
2022-11-13T10:11:42.632Z,13.85
2022-11-13T10:14:29.346Z,13.32
2022-11-13T10:17:25.100Z,12.00
2022-11-13T10:19:59.289Z,12.35
2022-11-13T10:22:45.522Z,13.02
2022-11-13T10:25:16.972Z,12.35
2022-11-13T10:27:49.327Z,11.60
2022-11-13T10:30:17.842Z,11.55
2022-11-13T10:32:45.506Z,11.07
2022-11-13T10:35:42.006Z,11.13
2022-11-13T10:38:22.865Z,11.20
2022-11-13T10:40:49.915Z,11.23
2022-11-13T10:43:20.916Z,11.55
2022-11-13T10:46:02.750Z,10.40
2022-11-13T10:48:32.432Z,10.73
2022-11-13T10:51:02.358Z,10.68
2022-11-13T10:56:00.676Z,10.63
2022-11-13T10:58:28.017Z,10.10
2022-11-13T11:00:55.323Z,10.07
2022-11-13T11:03:24.646Z,9.60
2022-11-13T11:05:57.220Z,9.80
2022-11-13T11:08:33.269Z,9.77
2022-11-13T11:11:27.194Z,9.52
2022-11-13T11:14:14.093Z,10.15
2022-11-13T11:16:42.700Z,9.68
2022-11-13T11:19:12.052Z,9.80
2022-11-13T11:21:41.258Z,9.82
2022-11-13T11:24:22.491Z,9.05
2022-11-13T11:26:56.570Z,28.67
2022-11-13T11:29:35.170Z,39.92
2022-11-13T11:32:16.296Z,39.85
2022-11-13T11:35:02.491Z,40.30
2022-11-13T11:40:41.299Z,36.60
2022-11-13T11:43:23.692Z,33.33
2022-11-13T11:45:50.626Z,32.25
2022-11-13T11:48:20.611Z,27.90
2022-11-13T11:51:15.433Z,28.02
2022-11-13T11:54:10.005Z,26.60
2022-11-13T11:59:54.528Z,23.85
2022-11-13T12:02:51.865Z,23.73
2022-11-13T12:05:29.760Z,21.83
2022-11-13T12:08:09.123Z,21.27
2022-11-13T12:10:35.952Z,19.70
2022-11-13T12:13:47.316Z,18.25
2022-11-13T12:16:25.258Z,17.80
2022-11-13T12:19:06.334Z,17.48
2022-11-13T12:21:57.495Z,16.10
2022-11-13T12:24:33.337Z,17.35
2022-11-13T12:27:32.475Z,16.10
2022-11-13T12:30:25.055Z,16.38
2022-11-13T12:32:51.894Z,15.82
2022-11-13T12:35:21.176Z,14.57
2022-11-13T12:38:03.824Z,14.52
2022-11-13T12:40:45.516Z,14.88
2022-11-13T12:43:18.460Z,14.43
2022-11-13T12:45:54.357Z,13.82
2022-11-13T12:48:39.456Z,14.23
2022-11-13T12:51:11.736Z,13.13
2022-11-13T12:53:54.274Z,12.85
2022-11-13T12:56:29.946Z,12.82
2022-11-13T12:59:29.069Z,12.35
2022-11-13T13:02:04.917Z,12.05
2022-11-13T13:04:54.446Z,12.60
2022-11-13T13:07:40.134Z,11.88
2022-11-13T13:10:23.563Z,11.55
2022-11-13T13:13:25.326Z,10.77
2022-11-13T13:16:03.842Z,11.52
2022-11-13T13:18:35.976Z,10.93
2022-11-13T13:21:12.060Z,10.98
2022-11-13T13:23:44.918Z,10.82
2022-11-13T13:26:27.427Z,11.05
2022-11-13T13:29:02.471Z,9.95
2022-11-13T13:31:43.534Z,10.45
2022-11-13T13:34:43.761Z,10.27
2022-11-13T13:37:37.763Z,10.02
2022-11-13T13:40:19.387Z,10.10
2022-11-13T13:43:16.996Z,9.85
2022-11-13T13:45:53.195Z,9.27
2022-11-13T13:48:27.168Z,8.82
2022-11-13T13:50:54.416Z,9.68
2022-11-13T13:53:30.657Z,9.93
2022-11-13T13:55:58.721Z,10.20
2022-11-13T13:58:31.533Z,8.57
2022-11-13T14:03:47.715Z,9.48
2022-11-13T14:06:23.166Z,9.57
2022-11-13T14:08:50.253Z,8.82
2022-11-13T14:11:22.868Z,8.50
2022-11-13T14:13:49.903Z,8.80
2022-11-13T14:16:17.007Z,8.20
2022-11-13T14:18:43.874Z,8.02
2022-11-13T14:21:17.158Z,8.68
2022-11-13T14:23:47.076Z,7.85
2022-11-13T14:26:14.152Z,8.10
2022-11-13T14:28:56.930Z,8.45
2022-11-13T14:31:32.533Z,8.00
2022-11-13T14:34:10.787Z,7.90
2022-11-13T14:36:38.655Z,8.25
2022-11-13T14:39:05.818Z,7.28
2022-11-13T14:41:38.442Z,7.45
2022-11-13T14:44:05.458Z,7.50
2022-11-13T14:46:39.150Z,7.55
2022-11-13T14:49:30.100Z,7.43
2022-11-13T14:51:57.804Z,7.20
2022-11-13T14:55:13.002Z,7.43
2022-11-13T14:57:30.003Z,7.10
2022-11-13T14:59:57.101Z,7.38
2022-11-13T15:02:23.902Z,6.28
2022-11-13T15:04:50.963Z,7.63
2022-11-13T15:07:30.728Z,7.28
2022-11-13T15:09:57.997Z,7.13
2022-11-13T15:12:25.173Z,6.63
2022-11-13T15:14:52.364Z,6.57
2022-11-13T15:17:20.658Z,6.68
2022-11-13T15:19:49.433Z,6.22
2022-11-13T15:22:31.563Z,5.97
2022-11-13T15:24:58.374Z,6.60
2022-11-13T15:27:25.165Z,6.25
2022-11-13T15:29:52.035Z,6.38
2022-11-13T15:32:18.902Z,5.68
2022-11-13T15:34:45.785Z,6.15
2022-11-13T15:37:13.963Z,6.70
2022-11-13T15:39:41.091Z,6.53
2022-11-13T15:42:13.114Z,6.68
2022-11-13T15:44:40.793Z,6.85
2022-11-13T15:47:29.997Z,6.43
2022-11-13T15:50:13.018Z,6.28
2022-11-13T15:52:43.098Z,6.10
2022-11-13T15:55:28.378Z,6.35
2022-11-13T15:57:55.906Z,5.60
2022-11-13T16:00:25.376Z,6.18
2022-11-13T16:02:55.597Z,5.05
2022-11-13T16:05:29.399Z,5.82
2022-11-13T16:07:56.905Z,6.25
2022-11-13T16:10:27.165Z,5.55
2022-11-13T16:12:54.268Z,13.77
2022-11-13T16:15:21.772Z,18.67
2022-11-13T16:17:55.177Z,17.63
2022-11-13T16:20:22.059Z,14.18
2022-11-13T16:22:48.898Z,12.05
2022-11-13T16:25:21.813Z,10.85
2022-11-13T16:27:49.014Z,10.43
2022-11-13T16:30:21.688Z,10.70
2022-11-13T16:32:48.587Z,9.57
2022-11-13T16:35:16.867Z,8.82
2022-11-13T16:37:43.991Z,9.25
2022-11-13T16:40:20.775Z,8.35
2022-11-13T16:42:48.107Z,8.23
2022-11-13T16:45:15.143Z,8.68
2022-11-13T16:47:42.367Z,8.52
2022-11-13T16:50:20.964Z,7.78
2022-11-13T16:52:47.995Z,8.05
2022-11-13T16:55:14.954Z,8.13
2022-11-13T16:57:41.942Z,7.97
2022-11-13T17:00:13.566Z,7.05
2022-11-13T17:02:40.414Z,7.90
2022-11-13T17:05:07.698Z,8.05
2022-11-13T17:07:34.688Z,7.43
2022-11-13T17:10:29.682Z,7.25
2022-11-13T17:12:54.758Z,7.10
2022-11-13T17:15:21.889Z,7.10
2022-11-13T17:17:48.785Z,6.97
2022-11-13T17:20:18.336Z,6.68
2022-11-13T17:22:48.485Z,6.75
2022-11-13T17:25:19.106Z,8.88
2022-11-13T17:27:46.005Z,93.70
2022-11-13T17:30:13.436Z,83.18
2022-11-13T17:32:40.327Z,63.70
2022-11-13T17:35:07.704Z,51.75
2022-11-13T17:37:34.600Z,43.33
2022-11-13T17:40:01.475Z,38.45
2022-11-13T17:42:28.818Z,48.75
2022-11-13T17:44:56.027Z,99.93
2022-11-13T17:47:23.202Z,81.85
2022-11-13T17:49:50.180Z,65.32
2022-11-13T17:52:17.241Z,60.80
2022-11-13T17:54:44.116Z,56.40
2022-11-13T17:57:11.482Z,54.33
2022-11-13T17:59:38.388Z,48.53
2022-11-13T18:02:05.274Z,46.00
2022-11-13T18:04:32.120Z,43.17
2022-11-13T18:06:59.082Z,52.42
2022-11-13T18:09:25.929Z,54.28
2022-11-13T18:11:52.784Z,48.22
2022-11-13T18:14:19.630Z,45.47
2022-11-13T18:16:46.497Z,44.85
2022-11-13T18:19:13.352Z,41.13
2022-11-13T18:21:40.714Z,39.10
2022-11-13T18:24:13.285Z,36.70
2022-11-13T18:26:40.641Z,35.00
2022-11-13T18:29:07.879Z,33.97
2022-11-13T18:31:34.767Z,32.30
2022-11-13T18:34:02.781Z,32.55
2022-11-13T18:36:31.685Z,30.50
2022-11-13T18:38:59.398Z,30.20
2022-11-13T18:41:26.294Z,30.80
2022-11-13T18:43:53.305Z,36.70
2022-11-13T18:46:21.658Z,34.83
2022-11-13T18:48:49.232Z,33.03
2022-11-13T18:51:24.970Z,30.40
2022-11-13T18:53:53.139Z,29.92
2022-11-13T18:56:22.518Z,28.45
2022-11-13T18:58:50.594Z,29.02
2022-11-13T19:01:22.575Z,27.60
2022-11-13T19:04:08.658Z,27.27
2022-11-13T19:06:38.642Z,26.83
2022-11-13T19:09:08.487Z,25.77
2022-11-13T19:14:02.286Z,24.50
2022-11-13T19:16:33.314Z,24.42
2022-11-13T19:19:05.505Z,23.60
2022-11-13T19:21:34.843Z,22.17
2022-11-13T19:24:02.793Z,22.92
2022-11-13T19:26:29.732Z,23.35
2022-11-13T19:28:56.642Z,21.88
2022-11-13T19:31:26.541Z,20.90
2022-11-13T19:33:58.115Z,22.10
2022-11-13T19:36:25.838Z,19.95
2022-11-13T19:38:53.208Z,20.98
2022-11-13T19:41:20.650Z,21.15
2022-11-13T19:43:48.812Z,20.08
2022-11-13T19:46:17.249Z,19.45
2022-11-13T19:48:45.497Z,18.70
2022-11-13T19:51:17.536Z,19.92
2022-11-13T19:53:47.590Z,56.78
2022-11-13T19:56:16.128Z,88.63
2022-11-13T19:58:44.473Z,74.90
2022-11-13T20:01:12.906Z,63.35
2022-11-13T20:03:40.003Z,53.85
2022-11-13T20:06:07.865Z,54.05
2022-11-13T20:08:35.636Z,47.55
2022-11-13T20:11:04.471Z,46.55
2022-11-13T20:13:36.653Z,43.10
2022-11-13T20:16:07.184Z,40.35
2022-11-13T20:18:34.375Z,37.72
2022-11-13T20:21:01.342Z,37.15
2022-11-13T20:23:28.245Z,33.75
2022-11-13T20:25:59.944Z,32.70
2022-11-13T20:28:30.794Z,32.47
2022-11-13T20:31:12.426Z,31.38
2022-11-13T20:33:39.274Z,31.15
2022-11-13T20:36:06.471Z,29.55
2022-11-13T20:38:33.487Z,29.25
2022-11-13T20:41:07.050Z,28.80
2022-11-13T20:43:34.435Z,28.85
2022-11-13T20:46:06.287Z,27.27
2022-11-13T20:48:34.329Z,26.25
2022-11-13T20:51:22.308Z,26.50
2022-11-13T20:53:49.949Z,24.63
2022-11-13T20:56:18.181Z,25.27
2022-11-13T20:58:45.552Z,24.52
2022-11-13T21:01:24.908Z,24.27
2022-11-13T21:03:52.593Z,24.00
2022-11-13T21:06:21.861Z,23.10
2022-11-13T21:08:48.825Z,22.88
2022-11-13T21:11:29.198Z,22.88
2022-11-13T21:13:57.567Z,22.95
2022-11-13T21:16:25.075Z,21.42
2022-11-13T21:18:52.044Z,21.65
2022-11-13T21:21:21.233Z,20.75
2022-11-13T21:23:48.621Z,21.00
2022-11-13T21:26:15.875Z,20.20
2022-11-13T21:28:43.458Z,20.05
2022-11-13T21:31:15.488Z,19.73
2022-11-13T21:33:43.566Z,19.63
2022-11-13T21:36:24.834Z,19.52
2022-11-13T21:38:53.075Z,18.35
2022-11-13T21:41:24.630Z,19.25
2022-11-13T21:43:55.916Z,18.73
2022-11-13T21:46:24.353Z,18.33
2022-11-13T21:49:09.115Z,17.88
2022-11-13T21:51:37.094Z,18.00
2022-11-13T21:54:04.533Z,18.42
2022-11-13T21:56:32.721Z,17.02
2022-11-13T21:58:59.592Z,17.60
2022-11-13T22:01:26.754Z,17.08
2022-11-13T22:03:54.598Z,17.13
2022-11-13T22:06:30.340Z,17.42
2022-11-13T22:09:01.039Z,17.15
2022-11-13T22:11:30.107Z,16.88
2022-11-13T22:13:57.479Z,17.40
2022-11-13T22:16:25.795Z,16.25
2022-11-13T22:18:54.921Z,16.60
2022-11-13T22:21:22.550Z,16.48
2022-11-13T22:23:50.122Z,109.28
2022-11-13T22:26:18.296Z,109.85
2022-11-13T22:28:46.238Z,84.10
2022-11-13T22:31:15.674Z,81.35
2022-11-13T22:33:48.186Z,72.95
2022-11-13T22:36:18.699Z,63.58
2022-11-13T22:38:46.001Z,56.95
2022-11-13T22:41:23.600Z,55.42
2022-11-13T22:43:53.313Z,51.65
2022-11-13T22:46:22.314Z,48.58
2022-11-13T22:48:50.993Z,46.88
2022-11-13T22:51:18.983Z,44.58
2022-11-13T22:53:54.041Z,41.78
2022-11-13T22:56:22.133Z,40.90
2022-11-13T22:58:49.506Z,38.72
2022-11-13T23:01:24.906Z,39.00
2022-11-13T23:03:52.929Z,38.33
2022-11-13T23:06:23.538Z,35.58
2022-11-13T23:08:50.867Z,34.78
2022-11-13T23:11:20.964Z,35.28
2022-11-13T23:13:50.466Z,33.15
2022-11-13T23:16:18.391Z,32.55
2022-11-13T23:18:45.928Z,31.90
2022-11-13T23:21:14.063Z,31.20
2022-11-13T23:23:41.069Z,30.85
2022-11-13T23:26:09.275Z,30.48
2022-11-13T23:28:36.794Z,30.23
2022-11-13T23:31:05.257Z,29.52
2022-11-13T23:33:32.706Z,29.15
2022-11-13T23:35:59.906Z,27.13
2022-11-13T23:38:26.929Z,28.55
2022-11-13T23:40:58.542Z,28.33
2022-11-13T23:43:41.599Z,28.02
2022-11-13T23:46:13.383Z,27.45
2022-11-13T23:48:40.414Z,26.05
2022-11-13T23:51:07.628Z,25.95
2022-11-13T23:53:34.528Z,25.88
2022-11-13T23:56:01.478Z,25.42
2022-11-13T23:58:28.764Z,24.85
